Time;durP1;ratioP1;P1;durP2;ratioP2;P2;SDS_P1;SDS_P2;PMS_P1;PMS_P2;Temp;Humidity;BMP_temperature;BMP_pressure;BME280_temperature;BME280_humidity;BME280_pressure;Samples;Min_cycle;Max_cycle;Signal;HPM_P1;HPM_P2
2021/05/05 00:00:43;;;;;;;20.90;6.82;;;12.80;99.90;;;;;;5030772;28;20052;-72
2021/05/05 00:03:48;;;;;;;9.13;4.15;;;12.80;99.90;;;;;;5030987;28;20036;-72
2021/05/05 00:06:55;;;;;;;8.38;3.83;;;12.70;99.90;;;;;;5050104;28;20036;-72
2021/05/05 00:10:00;;;;;;;6.82;4.70;;;12.70;99.90;;;;;;5051791;28;20511;-72
2021/05/05 00:13:05;;;;;;;10.23;4.65;;;12.70;99.90;;;;;;5050550;28;20399;-72
2021/05/05 00:16:10;;;;;;;5.50;3.50;;;12.70;99.90;;;;;;5048985;28;20400;-72
2021/05/05 00:19:14;;;;;;;11.63;3.75;;;12.70;99.90;;;;;;5051638;28;20048;-72
2021/05/05 00:22:19;;;;;;;5.93;3.17;;;12.70;99.90;;;;;;5050172;28;20048;-72
2021/05/05 00:25:23;;;;;;;5.15;2.78;;;12.80;99.90;;;;;;5049972;28;20052;-72
2021/05/05 00:28:27;;;;;;;5.80;2.30;;;12.90;99.90;;;;;;5051200;28;20391;-72
2021/05/05 00:31:32;;;;;;;4.78;2.90;;;12.90;99.90;;;;;;5046293;28;20047;-72
2021/05/05 00:34:44;;;;;;;7.20;2.20;;;12.90;99.90;;;;;;5040085;28;20056;-72
2021/05/05 00:37:49;;;;;;;3.92;2.20;;;12.90;99.90;;;;;;5037381;28;20048;-72
2021/05/05 00:40:53;;;;;;;2.97;2.33;;;13.00;99.90;;;;;;5030174;28;20495;-72
2021/05/05 00:43:57;;;;;;;4.45;2.25;;;12.90;99.90;;;;;;5037126;28;20395;-72
2021/05/05 00:47:02;;;;;;;4.80;2.28;;;12.80;99.90;;;;;;5050574;28;20032;-72
2021/05/05 00:50:10;;;;;;;5.43;2.10;;;12.70;99.90;;;;;;5039131;28;20044;-72
2021/05/05 00:53:14;;;;;;;5.88;2.20;;;12.70;99.90;;;;;;5044043;28;20044;-72
2021/05/05 00:56:20;;;;;;;6.35;2.35;;;12.60;99.90;;;;;;5049715;28;20040;-72
2021/05/05 00:59:26;;;;;;;6.95;2.53;;;12.70;99.90;;;;;;5030664;28;20056;-72
2021/05/05 01:02:31;;;;;;;4.32;2.17;;;12.70;99.90;;;;;;5029243;28;20388;-72
2021/05/05 01:05:36;;;;;;;4.43;2.30;;;12.70;99.90;;;;;;5030128;28;20036;-72
2021/05/05 01:08:41;;;;;;;6.47;3.05;;;12.80;99.90;;;;;;5050492;28;20044;-72
2021/05/05 01:11:46;;;;;;;3.47;2.42;;;12.80;99.90;;;;;;5044929;28;20404;-72
2021/05/05 01:14:50;;;;;;;5.45;2.30;;;12.80;99.90;;;;;;5048766;28;20040;-72
2021/05/05 01:17:55;;;;;;;6.65;2.30;;;12.80;99.90;;;;;;5050705;28;20044;-72
2021/05/05 01:21:00;;;;;;;5.78;3.03;;;12.70;99.90;;;;;;5048950;28;20499;-72
2021/05/05 01:24:06;;;;;;;4.60;2.70;;;12.60;99.90;;;;;;5035770;28;20041;-71
2021/05/05 01:27:10;;;;;;;6.85;2.60;;;12.40;99.90;;;;;;5030106;28;20052;-72
2021/05/05 01:30:17;;;;;;;7.47;3.90;;;12.20;99.90;;;;;;5029201;28;20047;-71
2021/05/05 01:33:22;;;;;;;35.53;15.23;;;12.00;99.90;;;;;;5029687;28;20068;-71
2021/05/05 01:36:34;;;;;;;51.67;22.40;;;12.00;99.90;;;;;;5030186;28;20044;-71
2021/05/05 01:39:40;;;;;;;80.85;33.67;;;11.90;99.90;;;;;;5029225;28;20048;-71
2021/05/05 01:42:44;;;;;;;13.75;6.60;;;11.80;99.90;;;;;;5029578;28;20044;-71
2021/05/05 01:45:48;;;;;;;14.13;6.47;;;11.50;99.90;;;;;;5029078;28;20048;-71
2021/05/05 01:48:52;;;;;;;43.97;17.50;;;11.40;99.90;;;;;;5030390;28;20892;-71
2021/05/05 01:52:03;;;;;;;42.42;17.75;;;11.40;99.90;;;;;;5047484;28;20044;-71
2021/05/05 01:55:09;;;;;;;10.10;5.68;;;11.20;99.90;;;;;;5031939;28;20036;-71
2021/05/05 01:58:15;;;;;;;15.68;7.47;;;11.10;99.90;;;;;;5047337;28;20428;-71
2021/05/05 02:01:18;;;;;;;28.85;11.70;;;11.10;99.90;;;;;;5051577;28;20044;-71
2021/05/05 02:04:24;;;;;;;32.53;13.20;;;11.10;99.90;;;;;;5053514;28;20048;-71
2021/05/05 02:07:42;;;;;;;12.95;6.65;;;11.00;99.90;;;;;;5052980;28;20056;-71
2021/05/05 02:10:46;;;;;;;10.10;4.78;;;10.90;99.90;;;;;;5052832;28;20060;-71
2021/05/05 02:13:53;;;;;;;6.80;3.47;;;10.80;99.90;;;;;;5052598;28;20048;-71
2021/05/05 02:17:00;;;;;;;5.07;3.45;;;10.80;99.90;;;;;;5046376;28;20425;-71
2021/05/05 02:20:09;;;;;;;8.60;4.13;;;10.70;99.90;;;;;;5051228;28;20491;-71
2021/05/05 02:23:13;;;;;;;6.32;2.92;;;10.60;99.90;;;;;;5033667;28;20487;-72
2021/05/05 02:26:17;;;;;;;7.80;3.17;;;10.60;99.90;;;;;;5048651;28;20051;-71
2021/05/05 02:29:23;;;;;;;7.15;3.65;;;10.50;99.90;;;;;;5052825;28;20056;-72
2021/05/05 02:32:41;;;;;;;6.78;3.70;;;10.40;99.90;;;;;;5045863;28;20040;-72
2021/05/05 02:35:46;;;;;;;5.65;3.33;;;10.40;99.90;;;;;;5031857;28;20041;-71
2021/05/05 02:38:52;;;;;;;6.35;3.75;;;10.30;99.90;;;;;;5047754;28;20048;-71
2021/05/05 02:41:59;;;;;;;8.50;5.35;;;10.30;99.90;;;;;;5051470;28;20052;-71
2021/05/05 02:45:06;;;;;;;6.45;3.97;;;10.30;99.90;;;;;;5044823;28;20044;-71
2021/05/05 02:48:10;;;;;;;5.25;3.58;;;10.20;99.90;;;;;;5049279;28;20048;-71
2021/05/05 02:51:16;;;;;;;7.78;3.72;;;10.20;99.90;;;;;;5031540;28;20040;-71
2021/05/05 02:54:21;;;;;;;6.90;4.47;;;10.20;99.90;;;;;;5042845;28;20131;-72
2021/05/05 02:57:26;;;;;;;6.68;3.70;;;10.20;99.90;;;;;;5051466;28;20052;-70
2021/05/05 03:00:30;;;;;;;7.90;4.75;;;10.30;99.90;;;;;;5051834;28;20056;-71
2021/05/05 03:03:34;;;;;;;8.35;3.70;;;10.20;99.90;;;;;;5051972;28;20056;-70
2021/05/05 03:06:38;;;;;;;6.72;4.07;;;10.20;99.90;;;;;;5050848;28;20119;-71
2021/05/05 03:09:43;;;;;;;7.40;4.45;;;10.20;99.90;;;;;;5052275;28;20044;-72
2021/05/05 03:12:49;;;;;;;7.90;4.40;;;10.20;99.90;;;;;;5048929;28;20052;-72
2021/05/05 03:15:54;;;;;;;8.88;4.40;;;10.20;99.90;;;;;;5051012;28;20048;-72
2021/05/05 03:18:58;;;;;;;6.20;4.38;;;10.60;99.90;;;;;;5052350;28;20044;-71
2021/05/05 03:22:03;;;;;;;11.15;5.10;;;10.70;99.90;;;;;;5051819;28;20040;-71
2021/05/05 03:25:08;;;;;;;7.78;4.53;;;10.70;99.90;;;;;;5042017;28;20056;-71
2021/05/05 03:28:12;;;;;;;7.53;4.43;;;10.70;99.90;;;;;;5032947;28;20052;-72
2021/05/05 03:31:16;;;;;;;7.03;3.92;;;10.60;99.90;;;;;;5030932;28;20052;-72
2021/05/05 03:34:20;;;;;;;5.97;4.20;;;10.60;99.90;;;;;;5031798;28;20057;-71
2021/05/05 03:37:24;;;;;;;6.05;4.22;;;10.50;99.90;;;;;;5034752;28;20040;-71
2021/05/05 03:40:29;;;;;;;7.40;3.97;;;10.50;99.90;;;;;;5051387;28;20044;-71
2021/05/05 03:43:33;;;;;;;5.78;3.90;;;10.50;99.90;;;;;;5051342;28;20040;-71
2021/05/05 03:46:38;;;;;;;8.45;4.00;;;10.50;99.90;;;;;;5051588;28;20387;-71
2021/05/05 03:49:42;;;;;;;9.35;3.95;;;10.50;99.90;;;;;;5051924;28;20964;-71
2021/05/05 03:52:46;;;;;;;9.65;4.60;;;10.40;99.90;;;;;;5041149;28;20044;-71
2021/05/05 03:55:51;;;;;;;6.05;4.20;;;10.30;99.90;;;;;;5044768;28;20036;-71
2021/05/05 03:58:55;;;;;;;10.25;5.25;;;10.20;99.90;;;;;;5032086;28;20512;-71
2021/05/05 04:01:59;;;;;;;9.35;5.50;;;10.10;99.90;;;;;;5050713;28;20382;-70
2021/05/05 04:05:04;;;;;;;9.50;5.22;;;10.00;99.90;;;;;;5047488;28;20515;-72
2021/05/05 04:08:08;;;;;;;14.32;6.85;;;10.00;99.90;;;;;;5031829;28;20499;-72
2021/05/05 04:11:12;;;;;;;11.20;5.95;;;10.10;99.90;;;;;;5027799;28;20041;-72
2021/05/05 04:14:16;;;;;;;5.82;4.10;;;10.20;99.90;;;;;;5030606;28;20052;-71
2021/05/05 04:17:20;;;;;;;8.07;4.57;;;10.30;99.90;;;;;;5031367;28;20041;-72
2021/05/05 04:20:24;;;;;;;7.03;4.40;;;10.50;99.90;;;;;;5050241;28;20040;-72
2021/05/05 04:23:29;;;;;;;11.43;4.95;;;10.60;99.90;;;;;;5042491;28;20048;-72
2021/05/05 04:26:34;;;;;;;11.10;6.95;;;10.70;99.90;;;;;;5031212;28;20051;-71
2021/05/05 04:29:40;;;;;;;9.20;5.00;;;10.70;99.90;;;;;;5030131;28;20052;-71
2021/05/05 04:32:53;;;;;;;10.32;4.50;;;10.80;99.90;;;;;;5034780;28;20056;-71
2021/05/05 04:35:58;;;;;;;10.20;3.53;;;10.90;99.90;;;;;;5030873;28;20052;-71
2021/05/05 04:39:04;;;;;;;5.55;3.65;;;11.10;99.90;;;;;;5047973;28;20048;-72
2021/05/05 04:42:10;;;;;;;7.95;4.90;;;11.20;99.90;;;;;;5031433;28;20672;-72
2021/05/05 04:45:14;;;;;;;14.77;8.52;;;11.30;99.90;;;;;;5029739;28;20060;-71
2021/05/05 04:48:18;;;;;;;11.55;5.70;;;11.40;99.90;;;;;;5040616;28;20048;-72
2021/05/05 04:51:23;;;;;;;9.93;5.55;;;11.60;99.90;;;;;;5047612;28;20044;-72
2021/05/05 04:54:26;;;;;;;11.43;6.05;;;11.70;99.90;;;;;;5040793;28;20037;-69
2021/05/05 04:57:30;;;;;;;17.30;9.18;;;11.70;99.90;;;;;;5031147;28;20040;-71
2021/05/05 05:00:36;;;;;;;14.40;6.57;;;11.30;99.90;;;;;;5033018;28;20040;-71
2021/05/05 05:03:40;;;;;;;11.77;6.38;;;12.30;99.90;;;;;;5030147;28;20048;-72
2021/05/05 05:06:44;;;;;;;9.70;5.40;;;12.50;99.90;;;;;;5031575;28;20396;-70
2021/05/05 05:09:47;;;;;;;10.57;5.68;;;12.40;99.90;;;;;;5029938;28;20052;-72
2021/05/05 05:12:51;;;;;;;8.80;4.97;;;12.70;99.90;;;;;;5030052;28;20048;-72
2021/05/05 05:15:56;;;;;;;9.13;3.58;;;13.30;99.90;;;;;;5029030;28;20056;-72
2021/05/05 05:19:01;;;;;;;5.13;2.95;;;13.50;99.90;;;;;;5030803;28;20044;-71
2021/05/05 05:22:05;;;;;;;7.05;3.13;;;13.80;99.90;;;;;;5028768;28;20055;-73
2021/05/05 05:25:11;;;;;;;4.13;3.08;;;13.90;99.90;;;;;;5031891;28;20056;-72
2021/05/05 05:28:16;;;;;;;7.47;3.28;;;13.60;99.90;;;;;;5030138;28;20056;-72
2021/05/05 05:31:20;;;;;;;9.18;3.72;;;13.60;99.90;;;;;;5028784;28;20117;-72
2021/05/05 05:34:24;;;;;;;9.35;5.30;;;13.30;99.90;;;;;;5046001;28;20060;-72
2021/05/05 05:37:28;;;;;;;8.07;3.95;;;13.10;99.90;;;;;;5042168;28;20789;-72
2021/05/05 05:40:34;;;;;;;10.05;5.22;;;12.10;99.90;;;;;;5030969;28;20047;-72
2021/05/05 05:43:39;;;;;;;9.52;4.20;;;12.50;99.90;;;;;;5045441;28;20735;-71
2021/05/05 05:46:44;;;;;;;7.15;4.15;;;12.00;99.90;;;;;;5036412;28;20040;-72
2021/05/05 05:49:48;;;;;;;17.55;5.45;;;11.70;99.90;;;;;;5040790;28;20123;-71
2021/05/05 05:52:52;;;;;;;10.05;5.10;;;12.40;99.90;;;;;;5045916;28;20479;-72
2021/05/05 05:55:56;;;;;;;9.00;4.53;;;12.30;99.90;;;;;;5044979;28;20044;-72
2021/05/05 05:59:00;;;;;;;5.22;4.00;;;13.10;99.90;;;;;;5044471;28;20495;-72
2021/05/05 06:02:05;;;;;;;9.40;4.72;;;13.60;99.90;;;;;;5047983;28;20044;-72
2021/05/05 06:05:12;;;;;;;8.52;5.43;;;13.40;99.90;;;;;;5044435;28;20061;-72
2021/05/05 06:08:16;;;;;;;9.27;4.75;;;14.10;99.90;;;;;;5049120;28;20060;-72
2021/05/05 06:11:21;;;;;;;8.75;5.53;;;15.40;99.90;;;;;;5033251;28;20484;-72
2021/05/05 06:14:25;;;;;;;11.13;6.68;;;16.90;99.90;;;;;;5030879;28;20594;-72
2021/05/05 06:17:29;;;;;;;15.77;7.32;;;17.50;99.90;;;;;;5030957;28;20052;-72
2021/05/05 06:20:34;;;;;;;6.65;3.78;;;17.40;99.90;;;;;;5029382;28;20041;-73
2021/05/05 06:23:38;;;;;;;13.05;5.30;;;18.50;99.90;;;;;;5030795;28;20068;-72
2021/05/05 06:26:44;;;;;;;9.45;4.45;;;18.40;99.90;;;;;;5038953;28;20049;-72
2021/05/05 06:29:48;;;;;;;10.23;4.95;;;18.50;99.90;;;;;;5046720;28;20718;-72
2021/05/05 06:32:52;;;;;;;7.53;4.10;;;18.60;99.90;;;;;;5044100;28;20055;-71
2021/05/05 06:35:56;;;;;;;7.68;3.85;;;17.80;99.90;;;;;;5036584;28;20515;-74
2021/05/05 06:39:05;;;;;;;25.23;12.07;;;18.50;99.90;;;;;;5041428;28;20048;-74
2021/05/05 06:42:10;;;;;;;9.70;5.63;;;18.80;99.90;;;;;;5042321;28;20036;-74
2021/05/05 06:45:15;;;;;;;11.75;5.50;;;18.70;99.90;;;;;;5042759;28;20049;-70
2021/05/05 06:48:19;;;;;;;12.27;5.18;;;17.20;99.90;;;;;;5041461;28;20041;-74
2021/05/05 06:51:24;;;;;;;10.45;5.20;;;16.70;99.90;;;;;;5036378;28;20044;-70
2021/05/05 06:54:28;;;;;;;9.82;6.30;;;16.10;99.90;;;;;;5052973;28;20048;-72
2021/05/05 06:57:32;;;;;;;24.05;12.90;;;15.40;99.90;;;;;;5046917;28;20042;-72
2021/05/05 07:00:37;;;;;;;30.55;17.90;;;14.80;99.90;;;;;;5034128;28;20036;-73
2021/05/05 07:03:41;;;;;;;32.10;18.48;;;14.60;99.90;;;;;;5047984;28;20040;-72
2021/05/05 07:06:46;;;;;;;15.90;8.48;;;14.70;99.90;;;;;;5036374;28;20056;-74
2021/05/05 07:09:52;;;;;;;10.70;4.35;;;16.30;99.90;;;;;;5046271;28;20372;-74
2021/05/05 07:12:56;;;;;;;19.65;11.85;;;17.70;99.90;;;;;;5043531;28;20052;-73
2021/05/05 07:16:01;;;;;;;7.50;3.35;;;19.00;99.90;;;;;;5052217;28;20052;-70
2021/05/05 07:19:05;;;;;;;7.50;4.45;;;19.20;99.90;;;;;;5052790;28;20043;-68
2021/05/05 07:22:09;;;;;;;7.07;3.15;;;20.30;99.90;;;;;;5042112;28;20041;-73
2021/05/05 07:25:13;;;;;;;4.25;2.60;;;20.50;99.90;;;;;;5042116;28;20060;-72
2021/05/05 07:28:17;;;;;;;4.85;3.10;;;20.30;99.90;;;;;;5033137;28;20060;-72
2021/05/05 07:31:22;;;;;;;4.93;2.35;;;20.00;99.90;;;;;;5030457;28;20048;-74
2021/05/05 07:34:27;;;;;;;6.47;2.35;;;19.70;99.90;;;;;;5035871;28;20035;-72
2021/05/05 07:47:38;;;;;;;5.38;3.15;;;21.30;99.90;;;;;;5043442;28;20056;-72
2021/05/05 07:50:42;;;;;;;5.82;2.45;;;21.20;99.80;;;;;;5040501;28;20056;-71
2021/05/05 07:53:47;;;;;;;6.68;2.63;;;19.20;99.90;;;;;;5044688;28;20036;-68
2021/05/05 07:56:51;;;;;;;5.00;2.58;;;17.70;99.90;;;;;;5038636;28;20039;-74
2021/05/05 07:59:56;;;;;;;5.18;2.33;;;17.20;99.90;;;;;;5038865;28;20053;-71
2021/05/05 08:03:00;;;;;;;10.80;6.50;;;17.20;99.90;;;;;;5034002;28;20068;-69
2021/05/05 08:06:05;;;;;;;6.55;4.82;;;18.60;99.90;;;;;;5031283;28;20053;-70
2021/05/05 08:09:10;;;;;;;6.38;3.33;;;20.50;99.90;;;;;;5030743;28;20545;-73
2021/05/05 08:12:15;;;;;;;4.57;3.00;;;19.20;99.90;;;;;;5035627;28;20048;-73
2021/05/05 08:15:19;;;;;;;4.25;2.58;;;20.90;99.90;;;;;;5034219;28;20040;-73
2021/05/05 08:18:24;;;;;;;5.82;1.90;;;20.30;99.90;;;;;;5039434;28;20044;-74
2021/05/05 08:21:30;;;;;;;5.53;2.22;;;21.20;98.90;;;;;;5034764;28;20048;-67
2021/05/05 08:24:34;;;;;;;8.23;3.38;;;21.60;98.90;;;;;;5040819;28;20044;-67
2021/05/05 08:27:41;;;;;;;2.55;1.50;;;21.70;98.60;;;;;;5034044;28;20490;-67
2021/05/05 08:30:46;;;;;;;3.28;2.05;;;21.30;99.70;;;;;;5035717;28;20044;-67
2021/05/05 08:33:51;;;;;;;5.32;3.33;;;21.30;99.30;;;;;;5041202;28;20048;-67
2021/05/05 08:36:56;;;;;;;4.25;2.08;;;21.10;99.90;;;;;;5043894;28;20055;-67
2021/05/05 08:40:01;;;;;;;4.00;2.30;;;22.20;98.90;;;;;;5043529;28;20044;-68
2021/05/05 08:43:05;;;;;;;4.05;2.30;;;21.30;99.70;;;;;;5049293;28;20526;-67
2021/05/05 08:46:10;;;;;;;3.58;2.38;;;20.30;99.90;;;;;;5049516;28;20056;-67
2021/05/05 08:49:17;;;;;;;5.88;2.55;;;20.00;99.90;;;;;;5050251;28;20048;-67
2021/05/05 08:52:22;;;;;;;3.75;2.20;;;23.30;98.70;;;;;;5038602;28;20044;-65
2021/05/05 08:55:28;;;;;;;5.18;3.13;;;24.10;97.70;;;;;;5042406;28;20107;-68
2021/05/05 08:58:32;;;;;;;3.80;2.35;;;23.30;97.80;;;;;;5042091;28;20056;-66
2021/05/05 09:01:37;;;;;;;7.45;3.03;;;22.80;97.90;;;;;;5035603;28;20044;-67
2021/05/05 09:04:58;;;;;;;6.25;3.30;;;22.20;99.10;;;;;;5029783;28;20397;-66
2021/05/05 09:08:09;;;;;;;5.00;2.80;;;22.40;98.20;;;;;;5040394;28;20060;-67
2021/05/05 09:11:15;;;;;;;;;;;22.80;96.90;;;;;;5031199;28;20049;-66
2021/05/05 09:14:19;;;;;;;6.20;2.22;;;22.40;98.20;;;;;;5048640;28;20259;-65
2021/05/05 09:17:39;;;;;;;10.95;2.42;;;20.90;99.30;;;;;;5031132;28;20052;-67
2021/05/05 09:20:44;;;;;;;11.20;6.75;;;19.50;99.90;;;;;;5046292;28;20392;-69
2021/05/05 09:23:48;;;;;;;8.20;3.95;;;18.60;99.90;;;;;;5048575;28;20391;-68
2021/05/05 09:26:59;;;;;;;6.00;2.17;;;18.40;99.90;;;;;;5030665;28;20049;-69
2021/05/05 09:30:25;;;;;;;3.22;1.90;;;17.40;99.90;;;;;;5043092;28;20059;-68
2021/05/05 09:33:33;;;;;;;3.10;1.92;;;16.70;99.90;;;;;;5049541;28;20096;-70
2021/05/05 09:36:56;;;;;;;5.07;3.35;;;16.30;99.90;;;;;;5049615;28;20155;-68
2021/05/05 09:40:08;;;;;;;7.65;3.65;;;16.80;99.90;;;;;;5046381;28;20040;-69
2021/05/05 09:43:17;;;;;;;3.88;2.55;;;17.00;99.90;;;;;;5029075;28;20048;-69
2021/05/05 09:46:41;;;;;;;5.60;2.53;;;16.70;99.90;;;;;;5041313;28;20518;-69
2021/05/05 09:49:46;;;;;;;3.58;2.30;;;16.80;99.90;;;;;;5032856;28;20051;-69
2021/05/05 09:52:51;;;;;;;8.00;2.42;;;16.30;99.90;;;;;;5036748;28;20428;-70
2021/05/05 09:55:58;;;;;;;5.60;2.30;;;17.00;99.90;;;;;;5049014;28;20052;-68
2021/05/05 09:59:02;;;;;;;6.78;2.08;;;16.60;99.90;;;;;;5042094;28;20045;-69
2021/05/05 10:02:07;;;;;;;3.47;1.85;;;16.70;99.90;;;;;;5042109;28;20047;-69
2021/05/05 10:05:14;;;;;;;4.93;2.50;;;17.10;99.90;;;;;;5042279;28;20064;-69
2021/05/05 10:08:30;;;;;;;3.97;2.75;;;17.20;99.90;;;;;;5029493;28;20044;-68
2021/05/05 10:11:48;;;;;;;6.57;3.53;;;17.10;99.90;;;;;;5049468;28;20044;-68
2021/05/05 10:14:55;;;;;;;4.13;2.55;;;16.70;99.90;;;;;;5038525;28;20072;-69
2021/05/05 10:18:01;;;;;;;5.25;2.60;;;16.80;99.90;;;;;;5041423;28;20051;-68
2021/05/05 10:21:07;;;;;;;3.67;2.13;;;16.90;99.90;;;;;;5042748;28;20052;-68
2021/05/05 10:24:12;;;;;;;5.75;1.92;;;17.20;99.90;;;;;;5033576;28;20052;-69
2021/05/05 10:27:17;;;;;;;4.85;2.20;;;17.40;99.90;;;;;;5033544;28;20057;-69
2021/05/05 10:30:28;;;;;;;6.38;2.28;;;17.50;99.90;;;;;;5032255;28;20044;-69
2021/05/05 10:33:38;;;;;;;3.05;1.95;;;17.40;99.90;;;;;;5033275;28;20072;-68
2021/05/05 10:36:52;;;;;;;5.90;2.10;;;17.50;99.90;;;;;;5038914;28;20040;-68
2021/05/05 10:40:17;;;;;;;7.57;2.38;;;17.40;99.90;;;;;;5052630;28;20609;-68
2021/05/05 10:43:23;;;;;;;4.43;2.10;;;17.20;99.90;;;;;;5052931;28;20048;-68
2021/05/05 10:46:35;;;;;;;4.78;2.35;;;16.90;99.90;;;;;;5051722;28;20044;-69
2021/05/05 10:50:05;;;;;;;4.75;2.03;;;16.90;99.90;;;;;;5052517;28;20419;-69
2021/05/05 10:53:09;;;;;;;3.83;1.58;;;16.30;99.90;;;;;;5051790;28;20048;-69
2021/05/05 10:56:21;;;;;;;7.47;2.25;;;16.20;99.90;;;;;;5045899;28;20049;-70
2021/05/05 10:59:26;;;;;;;5.25;2.10;;;16.20;99.90;;;;;;5047483;28;20052;-68
2021/05/05 11:02:38;;;;;;;5.40;2.00;;;16.10;99.90;;;;;;5046800;28;20055;-69
2021/05/05 11:05:45;;;;;;;5.53;2.50;;;16.10;99.90;;;;;;5044971;28;20032;-69
2021/05/05 11:08:49;;;;;;;3.72;2.33;;;16.20;99.90;;;;;;5045274;28;20052;-69
2021/05/05 11:11:54;;;;;;;6.28;1.90;;;16.60;99.90;;;;;;5052009;28;20048;-69
2021/05/05 11:14:58;;;;;;;4.78;2.05;;;16.80;99.90;;;;;;5037498;28;20049;-69
2021/05/05 11:18:24;;;;;;;4.57;2.15;;;17.00;99.90;;;;;;5031811;28;20045;-68
2021/05/05 11:21:30;;;;;;;4.00;1.80;;;17.50;99.90;;;;;;5031520;28;20044;-68
2021/05/05 11:24:36;;;;;;;4.82;2.78;;;17.60;99.90;;;;;;5040617;28;20384;-70
2021/05/05 11:27:51;;;;;;;4.70;2.03;;;17.60;99.90;;;;;;5035431;28;20049;-69
2021/05/05 11:30:57;;;;;;;6.43;3.22;;;17.20;99.90;;;;;;5029967;28;20495;-68
2021/05/05 11:34:03;;;;;;;4.97;3.83;;;17.10;99.90;;;;;;5046712;28;20040;-69
2021/05/05 11:37:16;;;;;;;7.10;3.50;;;17.10;99.90;;;;;;5038690;28;20051;-69
2021/05/05 11:40:22;;;;;;;5.28;2.70;;;17.00;99.90;;;;;;5038189;28;20399;-69
2021/05/05 11:43:29;;;;;;;4.55;2.10;;;17.00;99.90;;;;;;5049103;28;20060;-68
2021/05/05 11:46:33;;;;;;;4.45;1.90;;;16.80;99.90;;;;;;5040278;28;20048;-68
2021/05/05 11:49:43;;;;;;;2.28;1.70;;;17.00;99.90;;;;;;5032359;28;20063;-68
2021/05/05 11:52:54;;;;;;;5.55;2.83;;;17.30;99.90;;;;;;5034521;28;20063;-68
2021/05/05 11:55:58;;;;;;;7.60;2.42;;;17.90;99.90;;;;;;5041747;28;20084;-68
2021/05/05 11:59:03;;;;;;;3.65;2.22;;;18.20;99.90;;;;;;5046090;28;20035;-68
2021/05/05 12:02:08;;;;;;;4.18;2.47;;;17.70;99.90;;;;;;5030092;28;20045;-68
2021/05/05 12:05:45;;;;;;;7.47;3.15;;;17.90;99.90;;;;;;5041710;28;20071;-68
2021/05/05 12:08:52;;;;;;;5.55;2.60;;;18.00;99.90;;;;;;5037405;28;20060;-68
2021/05/05 12:12:16;;;;;;;4.50;2.50;;;18.10;99.90;;;;;;5046377;28;20626;-68
2021/05/05 12:15:23;;;;;;;8.00;2.65;;;18.20;99.90;;;;;;5039924;28;20044;-68
2021/05/05 12:18:37;;;;;;;5.47;3.33;;;18.20;99.90;;;;;;5034450;28;20396;-67
2021/05/05 12:21:41;;;;;;;5.65;2.17;;;18.20;99.90;;;;;;5047561;28;20052;-67
2021/05/05 12:25:04;;;;;;;3.88;1.70;;;17.70;99.90;;;;;;5047915;28;20040;-67
2021/05/05 12:28:17;;;;;;;4.18;1.50;;;17.90;99.90;;;;;;5042944;28;20047;-70
2021/05/05 12:31:24;;;;;;;6.88;1.40;;;18.20;99.90;;;;;;5038711;28;20067;-68
2021/05/05 12:34:28;;;;;;;7.30;1.63;;;18.10;99.90;;;;;;5044843;28;20044;-65
2021/05/05 12:37:33;;;;;;;2.58;1.58;;;17.90;99.90;;;;;;5035311;28;20064;-69
2021/05/05 12:40:38;;;;;;;1.85;1.42;;;18.10;99.90;;;;;;5042614;28;20044;-68
2021/05/05 12:43:50;;;;;;;6.05;2.90;;;18.00;99.90;;;;;;5044718;28;20044;-66
2021/05/05 12:47:08;;;;;;;3.17;1.60;;;17.80;99.90;;;;;;5047205;28;20047;-67
2021/05/05 12:50:14;;;;;;;3.38;1.38;;;17.80;99.90;;;;;;5048045;28;20232;-68
2021/05/05 12:53:18;;;;;;;3.33;1.60;;;17.90;99.90;;;;;;5036564;28;20048;-68
2021/05/05 12:56:48;;;;;;;3.97;1.40;;;18.00;99.90;;;;;;5039051;28;20033;-69
2021/05/05 12:59:53;;;;;;;3.90;1.80;;;18.00;99.90;;;;;;5042317;28;20052;-67
2021/05/05 13:03:09;;;;;;;9.75;1.92;;;18.10;99.90;;;;;;5045310;28;20032;-69
2021/05/05 13:06:14;;;;;;;4.90;1.60;;;18.30;99.90;;;;;;5042605;28;20053;-68
2021/05/05 13:09:22;;;;;;;4.32;1.50;;;18.10;99.90;;;;;;5034185;28;20040;-67
2021/05/05 13:12:36;;;;;;;6.03;1.67;;;17.90;99.90;;;;;;5047115;28;20047;-69
2021/05/05 13:29:41;;;;;;;4.75;1.80;;;17.60;99.90;;;;;;5046236;28;20396;-69
2021/05/05 13:33:04;;;;;;;6.38;1.63;;;17.50;99.90;;;;;;5048536;28;20040;-69
2021/05/05 13:36:12;;;;;;;2.72;1.50;;;17.60;99.90;;;;;;5032662;28;20040;-69
2021/05/05 13:39:17;;;;;;;3.40;1.40;;;17.60;99.90;;;;;;5036487;28;20041;-68
2021/05/05 13:42:22;;;;;;;3.25;1.50;;;17.80;99.90;;;;;;5038704;28;20538;-68
2021/05/05 13:45:30;;;;;;;5.15;1.83;;;17.60;99.90;;;;;;5031214;28;20519;-66
2021/05/05 13:48:41;;;;;;;4.03;1.92;;;17.80;99.90;;;;;;5046041;28;20051;-68
2021/05/05 13:51:46;;;;;;;3.90;1.75;;;17.70;99.90;;;;;;5051708;28;20044;-66
2021/05/05 13:54:50;;;;;;;5.95;2.20;;;17.60;99.90;;;;;;5033718;28;20049;-69
2021/05/05 13:57:55;;;;;;;3.05;1.63;;;17.70;99.90;;;;;;5043424;28;20388;-68
2021/05/05 14:01:00;;;;;;;8.15;2.15;;;17.90;99.90;;;;;;5052705;28;20040;-67
2021/05/05 14:04:04;;;;;;;3.10;1.88;;;18.10;99.90;;;;;;5053838;28;20051;-67
2021/05/05 14:07:11;;;;;;;5.50;2.08;;;18.10;99.90;;;;;;5053298;28;20391;-69
2021/05/05 14:10:15;;;;;;;4.20;1.65;;;18.10;99.90;;;;;;5039992;28;20053;-68
2021/05/05 14:13:20;;;;;;;4.93;2.00;;;18.30;99.90;;;;;;5033288;28;20052;-66
2021/05/05 14:16:24;;;;;;;3.42;1.90;;;18.60;99.90;;;;;;5040558;28;20048;-68
2021/05/05 14:19:28;;;;;;;4.07;2.03;;;18.40;99.90;;;;;;5053239;28;20044;-68
2021/05/05 14:22:32;;;;;;;8.73;2.10;;;18.40;99.90;;;;;;5053593;28;20052;-68
2021/05/05 14:25:38;;;;;;;5.13;1.92;;;18.20;99.90;;;;;;5053195;28;20072;-67
2021/05/05 14:28:42;;;;;;;7.88;2.05;;;18.30;99.90;;;;;;5053182;28;20267;-69
2021/05/05 14:31:46;;;;;;;6.80;2.10;;;18.50;99.90;;;;;;5052696;28;20301;-68
2021/05/05 14:34:52;;;;;;;4.15;1.63;;;18.50;99.90;;;;;;5053168;28;20052;-68
2021/05/05 14:38:14;;;;;;;2.15;1.55;;;18.40;99.90;;;;;;5051899;28;20052;-68
2021/05/05 14:41:27;;;;;;;;;;;18.40;99.90;;;;;;5052937;28;20044;-68
2021/05/05 14:44:34;;;;;;;4.45;1.75;;;18.60;99.90;;;;;;5051736;28;19920;-65
2021/05/05 14:50:54;;;;;;;4.57;1.80;;;18.60;99.90;;;;;;5052824;28;20044;-69
2021/05/05 14:53:58;;;;;;;8.18;1.83;;;18.50;99.90;;;;;;5052646;28;20052;-68
2021/05/05 14:57:02;;;;;;;6.03;1.83;;;18.60;99.90;;;;;;5052608;28;20052;-68
2021/05/05 15:00:09;;;;;;;3.40;1.50;;;18.60;99.90;;;;;;5051452;28;20052;-68
2021/05/05 15:03:14;;;;;;;5.22;1.60;;;18.70;99.90;;;;;;5052710;28;20040;-67
2021/05/05 15:06:29;;;;;;;3.20;1.70;;;18.60;99.90;;;;;;5052678;28;20048;-68
2021/05/05 15:09:50;;;;;;;5.15;1.83;;;18.70;99.90;;;;;;5052228;28;20040;-68
2021/05/05 15:13:01;;;;;;;4.07;1.95;;;18.70;99.90;;;;;;5052673;28;20052;-69
2021/05/05 15:38:30;;;;;;;8.50;3.15;;;19.20;99.90;;;;;;5051428;28;20514;-69
2021/05/05 15:41:42;;;;;;;9.90;3.45;;;19.30;99.90;;;;;;5051648;28;20495;-69
2021/05/05 15:47:50;;;;;;;7.75;2.35;;;19.30;99.90;;;;;;5051992;28;20044;-69
2021/05/05 15:50:56;;;;;;;7.97;2.90;;;19.20;99.90;;;;;;5051308;28;20073;-69
2021/05/05 15:54:00;;;;;;;9.23;3.28;;;19.00;99.90;;;;;;5051831;28;20048;-69
2021/05/05 15:57:07;;;;;;;6.05;2.88;;;18.90;99.90;;;;;;5051562;28;20043;-69
2021/05/05 16:00:25;;;;;;;10.23;3.28;;;18.90;99.90;;;;;;5050459;28;20048;-68
2021/05/05 16:16:19;;;;;;;5.40;2.72;;;18.70;99.90;;;;;;5032984;28;20514;-68
2021/05/05 16:19:59;;;;;;;7.15;2.60;;;18.60;99.90;;;;;;5033776;28;20045;-68
2021/05/05 16:23:04;;;;;;;10.73;2.90;;;18.60;99.90;;;;;;5029897;28;20056;-68
2021/05/05 17:05:52;;;;;;;6.00;2.03;;;19.20;99.90;;;;;;5040077;28;20395;-69
2021/05/05 17:12:02;;;;;;;5.70;1.92;;;19.20;99.90;;;;;;5037550;28;20049;-69
2021/05/05 17:15:47;;;;;;;4.38;1.92;;;19.10;99.90;;;;;;5038904;28;20052;-68
2021/05/05 17:19:11;;;;;;;6.88;1.90;;;19.00;99.90;;;;;;5043067;28;20040;-68
2021/05/05 17:22:09;;;;;;;13.00;2.72;;;19.00;99.90;;;;;;5033981;28;20051;-69
2021/05/05 17:25:24;;;;;;;7.22;2.13;;;18.80;99.90;;;;;;5038214;28;20060;-69
2021/05/05 17:28:45;;;;;;;6.90;2.40;;;18.70;99.90;;;;;;5045972;28;20051;-69
2021/05/05 17:38:54;;;;;;;14.35;5.57;;;18.10;99.90;;;;;;5044065;28;20053;-69
2021/05/05 17:59:08;;;;;;;;;;;16.90;99.90;;;;;;5047527;28;20051;-68
2021/05/05 18:11:51;;;;;;;14.25;3.22;;;16.10;99.90;;;;;;5029510;28;20561;-68
2021/05/05 18:15:03;;;;;;;11.05;2.40;;;16.00;99.90;;;;;;5034993;28;20056;-68
2021/05/05 18:18:24;;;;;;;11.43;3.17;;;15.90;99.90;;;;;;5028873;28;20040;-69
2021/05/05 18:31:20;;;;;;;13.98;3.38;;;15.30;99.90;;;;;;5035506;28;20052;-68
2021/05/05 18:34:24;;;;;;;11.15;3.30;;;15.10;99.90;;;;;;5041878;28;20411;-68
2021/05/05 18:37:30;;;;;;;9.57;2.83;;;15.00;99.90;;;;;;5046491;28;20510;-67
2021/05/05 18:40:48;;;;;;;11.65;2.75;;;14.90;99.90;;;;;;5051259;28;20040;-68
2021/05/05 19:14:33;;;;;;;11.18;3.15;;;14.40;99.90;;;;;;5034906;28;20048;-70